Time;durP1;ratioP1;P1;durP2;ratioP2;P2;SDS_P1;SDS_P2;PMS_P1;PMS_P2;Temp;Humidity;BMP_temperature;BMP_pressure;BME280_temperature;BME280_humidity;BME280_pressure;Samples;Min_cycle;Max_cycle;Signal;HPM_P1;HPM_P2
2021/06/03 00:02:20;;;;;;;0.50;0.50;;;19.10;53.50;;;;;;6321862;22;20067;-78
2021/06/03 00:04:45;;;;;;;0.40;0.40;;;19.10;53.60;;;;;;6264859;22;20017;-78
2021/06/03 00:07:12;;;;;;;0.50;0.50;;;19.00;53.70;;;;;;6236781;22;20128;-78
2021/06/03 00:09:39;;;;;;;0.47;0.47;;;19.00;53.80;;;;;;6318190;22;20011;-78
2021/06/03 00:12:06;;;;;;;0.50;0.50;;;19.00;53.80;;;;;;6314827;22;20022;-78
2021/06/03 00:14:32;;;;;;;0.50;0.50;;;19.00;53.80;;;;;;6268453;22;20063;-78
2021/06/03 00:16:58;;;;;;;0.45;0.45;;;19.00;53.80;;;;;;6325109;22;20351;-77
2021/06/03 00:19:24;;;;;;;0.47;0.47;;;19.10;53.90;;;;;;6298629;22;20067;-77
2021/06/03 00:21:51;;;;;;;0.52;0.40;;;19.00;54.00;;;;;;6324262;22;20007;-77
2021/06/03 00:24:17;;;;;;;0.35;0.35;;;19.10;54.10;;;;;;6293848;22;20034;-78
2021/06/03 00:26:43;;;;;;;0.50;0.50;;;19.00;54.20;;;;;;6319041;22;20423;-77
2021/06/03 00:29:11;;;;;;;0.40;0.35;;;19.00;54.30;;;;;;6270504;22;20094;-78
2021/06/03 00:31:36;;;;;;;0.50;0.50;;;18.90;54.30;;;;;;6297658;22;20025;-77
2021/06/03 00:34:03;;;;;;;0.40;0.40;;;18.90;54.50;;;;;;6300458;22;20357;-77
2021/06/03 00:36:32;;;;;;;0.50;0.50;;;18.90;54.60;;;;;;6329286;22;20027;-76
2021/06/03 00:38:58;;;;;;;0.73;0.57;;;18.90;54.80;;;;;;6297837;22;20011;-78
2021/06/03 00:41:24;;;;;;;0.40;0.40;;;18.80;54.90;;;;;;6324609;22;20003;-77
2021/06/03 00:43:49;;;;;;;0.50;0.50;;;18.70;55.00;;;;;;6300570;22;20000;-77
2021/06/03 00:46:16;;;;;;;0.68;0.50;;;18.70;55.20;;;;;;6250775;22;20003;-77
2021/06/03 00:48:42;;;;;;;0.50;0.50;;;18.70;55.40;;;;;;6304469;22;20039;-78
2021/06/03 00:51:09;;;;;;;0.68;0.63;;;18.70;55.50;;;;;;6250923;22;20010;-77
2021/06/03 00:53:39;;;;;;;0.40;0.40;;;18.60;55.50;;;;;;6189072;23;20032;-77
2021/06/03 00:56:05;;;;;;;0.47;0.47;;;18.60;55.70;;;;;;6190367;23;20008;-77
2021/06/03 00:58:32;;;;;;;0.32;0.32;;;18.60;55.70;;;;;;6166328;23;20009;-77
2021/06/03 01:00:58;;;;;;;2.83;0.70;;;18.60;55.80;;;;;;6190387;23;20008;-77
2021/06/03 01:03:29;;;;;;;0.60;0.50;;;18.50;55.90;;;;;;6160853;23;20016;-77
2021/06/03 01:06:05;;;;;;;0.40;0.40;;;18.50;56.10;;;;;;6186050;23;20008;-77
2021/06/03 01:08:46;;;;;;;0.50;0.50;;;18.50;56.20;;;;;;6092737;23;20063;-77
2021/06/03 01:11:23;;;;;;;0.38;0.38;;;18.50;56.30;;;;;;6069701;23;20038;-77
2021/06/03 01:13:58;;;;;;;0.40;0.40;;;18.40;56.40;;;;;;6063615;23;20062;-77
2021/06/03 01:20:12;;;;;;;0.47;0.45;;;18.30;56.60;;;;;;6312953;22;20320;31
2021/06/03 01:22:53;;;;;;;0.30;0.30;;;18.30;56.70;;;;;;6301241;22;20059;-77
2021/06/03 01:25:26;;;;;;;0.47;0.47;;;18.30;56.70;;;;;;6302969;22;20007;-78
2021/06/03 01:27:56;;;;;;;0.40;0.40;;;18.30;56.80;;;;;;6269312;22;20011;-77
2021/06/03 01:30:27;;;;;;;0.43;0.43;;;18.30;57.00;;;;;;6281706;22;20004;-78
2021/06/03 01:32:58;;;;;;;0.40;0.40;;;18.20;57.00;;;;;;6305029;22;20006;-77
2021/06/03 01:35:28;;;;;;;0.30;0.30;;;18.20;57.20;;;;;;6300026;22;20034;-77
2021/06/03 01:37:54;;;;;;;0.40;0.40;;;18.20;57.20;;;;;;6300888;22;20004;-77
2021/06/03 01:40:22;;;;;;;0.30;0.30;;;18.20;57.20;;;;;;6296507;22;20007;-75
2021/06/03 01:42:48;;;;;;;0.40;0.40;;;18.40;57.30;;;;;;6325358;22;20015;-78
2021/06/03 01:45:15;;;;;;;0.40;0.40;;;18.40;57.00;;;;;;6304918;22;20019;-78
2021/06/03 01:47:42;;;;;;;0.65;0.50;;;18.50;56.90;;;;;;6286668;22;20003;-77
2021/06/03 01:50:10;;;;;;;0.55;0.40;;;18.50;56.90;;;;;;6277669;22;19991;-77
2021/06/03 01:52:37;;;;;;;0.40;0.40;;;18.50;57.10;;;;;;6304380;22;20003;-77
2021/06/03 01:55:05;;;;;;;0.30;0.30;;;18.40;57.10;;;;;;6301499;22;20027;-77
2021/06/03 01:57:31;;;;;;;0.40;0.40;;;18.40;57.20;;;;;;6302485;22;20016;-77
2021/06/03 01:59:56;;;;;;;0.30;0.30;;;18.50;57.20;;;;;;6302429;22;20054;-78
2021/06/03 02:02:22;;;;;;;0.50;0.40;;;18.50;57.30;;;;;;6332812;22;19991;-79
2021/06/03 02:04:48;;;;;;;0.40;0.40;;;18.40;57.30;;;;;;6332131;22;20492;-78
2021/06/03 02:07:14;;;;;;;0.40;0.40;;;18.40;57.50;;;;;;6301247;22;19995;-77
2021/06/03 02:09:40;;;;;;;0.40;0.40;;;18.30;57.50;;;;;;6279422;22;20019;-77
2021/06/03 02:12:09;;;;;;;0.40;0.40;;;18.40;57.70;;;;;;6301018;22;19991;-78
2021/06/03 02:14:39;;;;;;;0.52;0.50;;;18.40;57.70;;;;;;6333308;22;20011;-78
2021/06/03 02:17:25;;;;;;;0.30;0.30;;;18.30;57.70;;;;;;6277985;22;20019;-77
2021/06/03 02:19:55;;;;;;;0.30;0.30;;;18.40;57.90;;;;;;6327014;22;20237;-78
2021/06/03 02:22:22;;;;;;;0.50;0.40;;;18.30;57.90;;;;;;6328230;22;20003;-79
2021/06/03 02:24:49;;;;;;;0.30;0.30;;;18.30;58.10;;;;;;6331023;22;20070;-79
2021/06/03 02:27:17;;;;;;;0.45;0.45;;;18.30;58.20;;;;;;6330296;22;20378;-78
2021/06/03 02:29:44;;;;;;;0.30;0.30;;;18.20;58.40;;;;;;6330203;22;20007;-77
2021/06/03 02:32:11;;;;;;;0.60;0.60;;;18.20;58.50;;;;;;6302056;22;19998;-78
2021/06/03 02:34:38;;;;;;;0.35;0.35;;;18.10;58.60;;;;;;6327618;22;20011;-77
2021/06/03 02:37:13;;;;;;;0.40;0.40;;;18.10;58.80;;;;;;6250127;22;20171;-77
2021/06/03 02:39:41;;;;;;;0.47;0.47;;;18.10;58.90;;;;;;6277994;22;19991;-77
2021/06/03 02:42:09;;;;;;;0.25;0.25;;;18.10;59.10;;;;;;6303108;22;20016;-78
2021/06/03 02:44:37;;;;;;;0.43;0.43;;;18.00;59.10;;;;;;6333106;22;19992;-78
2021/06/03 02:47:04;;;;;;;0.28;0.28;;;18.00;59.30;;;;;;6329690;22;20007;-77
2021/06/03 02:49:30;;;;;;;0.30;0.30;;;17.90;59.40;;;;;;6329238;22;20015;-77
2021/06/03 02:52:01;;;;;;;0.93;0.60;;;18.00;59.60;;;;;;6300554;22;20007;-78
2021/06/03 02:54:28;;;;;;;0.52;0.40;;;17.90;59.60;;;;;;6278895;22;20023;-77
2021/06/03 02:56:55;;;;;;;0.40;0.40;;;17.90;59.80;;;;;;6302026;22;20008;-77
2021/06/03 02:59:20;;;;;;;0.30;0.30;;;17.80;59.90;;;;;;6301708;22;20008;-77
2021/06/03 03:01:46;;;;;;;0.57;0.40;;;17.80;60.00;;;;;;6302477;22;20042;-77
2021/06/03 03:04:12;;;;;;;0.40;0.40;;;17.70;60.00;;;;;;6304101;22;20562;-77
2021/06/03 03:06:37;;;;;;;0.50;0.50;;;17.80;60.10;;;;;;6276416;22;20031;-77
2021/06/03 03:09:04;;;;;;;0.50;0.50;;;17.80;60.20;;;;;;6299388;22;19999;-77
2021/06/03 03:11:30;;;;;;;0.50;0.50;;;17.80;60.30;;;;;;6274609;22;19984;-78
2021/06/03 03:13:56;;;;;;;0.50;0.50;;;17.80;60.40;;;;;;6298925;22;20034;-77
2021/06/03 03:16:22;;;;;;;0.38;0.38;;;17.80;60.50;;;;;;6304034;22;19999;-77
2021/06/03 03:18:48;;;;;;;0.65;0.57;;;17.80;60.50;;;;;;6300455;22;20065;-77
2021/06/03 03:21:14;;;;;;;0.30;0.30;;;17.70;60.60;;;;;;6299445;22;20007;-76
2021/06/03 03:23:40;;;;;;;0.88;0.50;;;17.70;60.70;;;;;;6300305;22;20014;-78
2021/06/03 03:26:05;;;;;;;0.40;0.40;;;17.70;60.80;;;;;;6325066;22;20011;-78
2021/06/03 03:28:31;;;;;;;0.38;0.38;;;17.70;60.90;;;;;;6276669;22;20015;-78
2021/06/03 03:30:57;;;;;;;0.50;0.50;;;17.70;61.00;;;;;;6301243;22;20012;-77
2021/06/03 03:33:25;;;;;;;0.40;0.40;;;17.60;61.00;;;;;;6275909;22;20007;-77
2021/06/03 03:35:52;;;;;;;0.40;0.40;;;17.60;61.20;;;;;;6300990;22;19988;-77
2021/06/03 03:38:20;;;;;;;0.43;0.40;;;17.60;61.20;;;;;;6305761;22;20010;-77
2021/06/03 03:40:46;;;;;;;0.57;0.57;;;17.60;61.30;;;;;;6305779;22;20011;-77
2021/06/03 03:43:12;;;;;;;0.38;0.38;;;17.60;61.50;;;;;;6305212;22;20000;-78
2021/06/03 03:45:38;;;;;;;0.30;0.30;;;17.60;62.20;;;;;;6329573;22;20033;-79
2021/06/03 03:48:05;;;;;;;0.38;0.38;;;17.60;61.70;;;;;;6284005;22;20007;-77
2021/06/03 03:50:32;;;;;;;0.50;0.50;;;17.60;61.80;;;;;;6287380;22;20063;-78
2021/06/03 03:52:58;;;;;;;0.60;0.50;;;17.50;61.80;;;;;;6331009;22;20012;-76
2021/06/03 03:58:42;;;;;;;0.47;0.47;;;17.50;62.00;;;;;;6327702;22;20026;-78
2021/06/03 04:01:12;;;;;;;0.43;0.43;;;17.50;62.00;;;;;;6306823;22;19995;-78
2021/06/03 04:03:38;;;;;;;0.55;0.55;;;17.60;62.10;;;;;;6306443;22;20004;-78
2021/06/03 04:06:08;;;;;;;0.30;0.30;;;17.50;62.20;;;;;;6307089;22;20015;-78
2021/06/03 04:08:34;;;;;;;0.38;0.38;;;17.50;62.20;;;;;;6282002;22;20026;-78
2021/06/03 04:11:03;;;;;;;0.70;0.50;;;17.60;62.40;;;;;;6278868;22;20015;-77
2021/06/03 04:13:30;;;;;;;0.85;0.40;;;17.60;62.50;;;;;;6148921;23;20026;-76
2021/06/03 04:16:03;;;;;;;1.08;0.50;;;17.50;62.60;;;;;;6149865;23;20006;-77
2021/06/03 04:18:36;;;;;;;0.40;0.40;;;17.60;62.80;;;;;;6120729;23;20034;-77
2021/06/03 04:24:19;;;;;;;0.63;0.60;;;17.60;62.60;;;;;;6330796;22;20079;-77
2021/06/03 04:27:21;;;;;;;0.50;0.50;;;17.60;62.50;;;;;;6289032;22;20015;31
2021/06/03 04:29:48;;;;;;;0.40;0.40;;;17.70;62.70;;;;;;6270006;22;20061;-76
2021/06/03 04:32:13;;;;;;;0.75;0.40;;;17.70;62.70;;;;;;6245254;23;20004;-79
2021/06/03 04:34:39;;;;;;;0.90;0.47;;;17.70;62.80;;;;;;6270561;22;20463;-78
2021/06/03 04:37:05;;;;;;;0.40;0.40;;;17.70;62.90;;;;;;6244384;22;20080;-77
2021/06/03 04:39:31;;;;;;;0.40;0.40;;;17.60;63.00;;;;;;6267506;22;20012;-77
2021/06/03 04:41:57;;;;;;;0.75;0.40;;;17.70;63.20;;;;;;6271434;23;19995;-76
2021/06/03 04:44:23;;;;;;;0.40;0.40;;;17.80;63.30;;;;;;6271779;23;20011;-77
2021/06/03 04:46:52;;;;;;;0.50;0.50;;;17.90;63.10;;;;;;6270828;22;20000;-78
2021/06/03 04:49:18;;;;;;;0.30;0.30;;;17.90;63.00;;;;;;6209800;23;20008;-78
2021/06/03 04:51:44;;;;;;;0.50;0.50;;;18.00;62.90;;;;;;6197453;23;20024;-78
2021/06/03 04:54:10;;;;;;;0.65;0.50;;;18.10;62.80;;;;;;6244727;23;20011;-78
2021/06/03 04:56:36;;;;;;;0.68;0.40;;;18.20;62.80;;;;;;6244962;23;20004;-78
2021/06/03 04:59:02;;;;;;;0.32;0.32;;;18.20;62.70;;;;;;6242945;23;20012;-78
2021/06/03 05:01:28;;;;;;;0.30;0.30;;;18.30;62.80;;;;;;6245033;23;20081;-78
2021/06/03 05:03:53;;;;;;;0.50;0.50;;;18.40;62.90;;;;;;6243963;23;20008;-79
2021/06/03 05:06:19;;;;;;;0.60;0.60;;;18.40;63.50;;;;;;6243272;23;20023;-78
2021/06/03 05:08:45;;;;;;;0.40;0.40;;;18.40;62.90;;;;;;6243155;23;20082;-78
2021/06/03 05:11:11;;;;;;;0.85;0.55;;;18.60;62.90;;;;;;6244450;23;20004;-78
2021/06/03 05:13:37;;;;;;;0.40;0.40;;;18.60;62.90;;;;;;6243419;23;20008;-78
2021/06/03 05:16:03;;;;;;;0.57;0.50;;;18.70;62.90;;;;;;6243238;23;20425;-78
2021/06/03 05:18:29;;;;;;;0.45;0.45;;;18.70;62.90;;;;;;6215016;23;20446;-78
2021/06/03 05:20:54;;;;;;;0.73;0.50;;;18.80;63.00;;;;;;6242900;23;20016;-78
2021/06/03 05:23:20;;;;;;;0.40;0.40;;;18.80;62.90;;;;;;6218135;23;20014;-78
2021/06/03 05:25:47;;;;;;;0.50;0.50;;;19.00;63.00;;;;;;6244983;23;20054;-78
2021/06/03 05:28:13;;;;;;;0.43;0.43;;;19.00;63.00;;;;;;6244502;23;20340;-76
2021/06/03 05:30:39;;;;;;;0.52;0.52;;;19.00;62.90;;;;;;6244806;23;20004;-75
2021/06/03 05:33:06;;;;;;;0.47;0.47;;;19.10;62.90;;;;;;6217432;23;20015;-75
2021/06/03 05:35:32;;;;;;;0.60;0.60;;;19.10;62.90;;;;;;6242506;23;20040;-76
2021/06/03 05:37:58;;;;;;;0.47;0.47;;;19.10;63.00;;;;;;6243125;23;20108;-75
2021/06/03 05:40:25;;;;;;;0.75;0.70;;;19.10;63.10;;;;;;6244202;23;20436;-76
2021/06/03 05:42:53;;;;;;;0.60;0.60;;;19.20;63.30;;;;;;6245046;23;20008;-76
2021/06/03 05:45:20;;;;;;;0.70;0.50;;;19.20;63.40;;;;;;6242914;23;20015;-76
2021/06/03 05:47:47;;;;;;;0.80;0.80;;;19.20;63.40;;;;;;6241146;23;20009;-76
2021/06/03 05:50:15;;;;;;;0.70;0.70;;;19.30;63.50;;;;;;6244661;23;20008;-76
2021/06/03 05:52:42;;;;;;;0.68;0.68;;;19.30;63.70;;;;;;6244543;23;20489;-75
2021/06/03 05:55:10;;;;;;;0.68;0.68;;;19.30;63.50;;;;;;6245316;23;20008;-76
2021/06/03 05:57:36;;;;;;;0.70;0.68;;;19.40;63.60;;;;;;6244559;23;20020;-76
2021/06/03 06:00:07;;;;;;;0.75;0.75;;;19.40;63.60;;;;;;6244974;23;20339;-75
2021/06/03 06:02:46;;;;;;;0.82;0.70;;;19.50;63.70;;;;;;6217418;23;20344;-76
2021/06/03 06:07:50;;;;;;;0.95;0.77;;;19.60;63.60;;;;;;6243003;23;20509;-75
2021/06/03 06:10:16;;;;;;;0.73;0.73;;;19.60;63.60;;;;;;6245050;23;20008;-76
2021/06/03 06:12:41;;;;;;;1.25;1.00;;;19.60;63.70;;;;;;6244223;23;20069;-75
2021/06/03 06:15:08;;;;;;;0.80;0.80;;;19.70;63.80;;;;;;6243721;23;20016;-75
2021/06/03 06:17:33;;;;;;;0.70;0.60;;;19.70;63.90;;;;;;6243040;23;20421;-75
2021/06/03 06:19:59;;;;;;;1.10;1.00;;;19.80;63.90;;;;;;6244046;23;20008;-76
2021/06/03 06:22:25;;;;;;;0.90;0.88;;;19.90;63.80;;;;;;6242023;23;20008;-76
2021/06/03 06:24:50;;;;;;;2.33;0.90;;;20.10;63.60;;;;;;6242669;23;20326;-75
2021/06/03 06:27:16;;;;;;;0.70;0.70;;;20.30;63.40;;;;;;6242999;23;20015;-76
2021/06/03 06:29:42;;;;;;;0.80;0.80;;;20.40;63.20;;;;;;6244939;23;20375;-76
2021/06/03 06:32:08;;;;;;;0.93;0.90;;;20.40;63.30;;;;;;6243016;23;20062;-75
2021/06/03 06:34:33;;;;;;;0.95;0.93;;;20.50;63.10;;;;;;6244541;23;20008;-76
2021/06/03 06:36:59;;;;;;;0.70;0.70;;;20.60;63.00;;;;;;6244358;23;20004;-75
2021/06/03 06:39:25;;;;;;;0.80;0.80;;;20.70;63.00;;;;;;6242572;23;20009;-76
2021/06/03 06:41:50;;;;;;;0.90;0.90;;;20.90;62.90;;;;;;6243331;23;20000;-75
2021/06/03 06:44:17;;;;;;;0.77;0.77;;;21.00;62.80;;;;;;6242674;23;20003;-76
2021/06/03 06:46:43;;;;;;;1.10;1.00;;;21.20;62.70;;;;;;6242546;23;20484;-76
2021/06/03 06:49:09;;;;;;;1.25;1.00;;;21.30;62.50;;;;;;6242140;23;20042;-76
2021/06/03 06:51:34;;;;;;;0.80;0.80;;;21.40;62.20;;;;;;6244599;23;20004;-75
2021/06/03 06:54:00;;;;;;;0.70;0.70;;;21.60;62.20;;;;;;6242701;23;20008;-75
2021/06/03 06:56:26;;;;;;;0.93;0.73;;;21.80;62.00;;;;;;6242783;23;20490;-76
2021/06/03 06:58:52;;;;;;;1.08;0.90;;;21.90;61.90;;;;;;6245219;23;20008;-77
2021/06/03 07:01:18;;;;;;;1.23;1.02;;;21.90;62.00;;;;;;6197320;23;20012;-78
2021/06/03 07:03:43;;;;;;;1.10;0.82;;;22.00;62.00;;;;;;6217010;23;20024;-78
2021/06/03 07:06:09;;;;;;;1.38;1.00;;;22.10;62.00;;;;;;6248639;22;20458;-77
2021/06/03 07:08:35;;;;;;;2.25;0.95;;;22.10;62.30;;;;;;6246141;23;20015;-77
2021/06/03 07:11:01;;;;;;;1.20;0.90;;;22.20;62.50;;;;;;6247835;23;20042;-76
2021/06/03 07:13:26;;;;;;;1.00;0.90;;;22.30;62.30;;;;;;6249785;23;20090;-75
2021/06/03 07:15:52;;;;;;;1.77;1.10;;;22.40;62.60;;;;;;6256306;23;20004;-77
2021/06/03 07:18:18;;;;;;;1.05;1.00;;;22.50;62.00;;;;;;6255322;23;20444;-76
2021/06/03 07:20:43;;;;;;;1.17;0.90;;;22.60;62.10;;;;;;6262918;23;20008;-76
2021/06/03 07:23:09;;;;;;;1.30;1.20;;;22.70;62.00;;;;;;6254299;23;20082;-78
2021/06/03 07:25:39;;;;;;;1.20;1.10;;;22.80;61.90;;;;;;6256846;23;20071;-76
2021/06/03 07:28:05;;;;;;;1.42;1.17;;;22.90;62.00;;;;;;6255231;23;20042;-76
2021/06/03 07:30:31;;;;;;;1.25;1.15;;;23.00;61.90;;;;;;6255579;23;20004;-77
2021/06/03 07:32:57;;;;;;;1.30;1.20;;;23.00;61.80;;;;;;6258872;23;20054;-75
2021/06/03 07:35:26;;;;;;;1.98;1.38;;;23.10;61.80;;;;;;6248048;23;20012;-74
2021/06/03 07:37:52;;;;;;;1.40;1.30;;;23.20;62.00;;;;;;6255585;23;20061;-76
2021/06/03 07:40:21;;;;;;;1.30;1.20;;;23.20;62.00;;;;;;6247633;23;20008;-77
2021/06/03 07:42:48;;;;;;;1.13;1.02;;;23.20;62.10;;;;;;6249452;23;20024;-77
2021/06/03 07:45:16;;;;;;;1.10;1.00;;;23.40;62.10;;;;;;6245463;23;20004;-77
2021/06/03 07:47:42;;;;;;;1.00;0.90;;;23.50;61.70;;;;;;6247728;23;20390;-77
2021/06/03 07:50:10;;;;;;;1.00;0.88;;;23.50;61.80;;;;;;6219891;23;20083;-78
2021/06/03 07:52:37;;;;;;;0.80;0.80;;;23.50;62.00;;;;;;6244279;23;20008;-77
2021/06/03 07:55:06;;;;;;;0.65;0.65;;;23.70;62.00;;;;;;6257822;23;20011;-76
2021/06/03 07:57:33;;;;;;;1.00;0.90;;;24.00;61.70;;;;;;6243548;23;20034;-78
2021/06/03 07:59:59;;;;;;;1.42;0.88;;;24.20;61.30;;;;;;6218180;23;20444;-77
2021/06/03 08:02:25;;;;;;;1.60;1.30;;;24.30;61.80;;;;;;6255527;23;20008;-77
2021/06/03 08:04:50;;;;;;;1.33;1.10;;;24.20;61.30;;;;;;6238807;23;19999;-78
2021/06/03 08:07:16;;;;;;;1.30;1.20;;;24.10;61.50;;;;;;6258288;23;20070;-77
2021/06/03 08:09:44;;;;;;;1.00;0.90;;;24.20;61.70;;;;;;6254377;23;20005;-77
2021/06/03 08:12:12;;;;;;;0.90;0.90;;;24.60;61.50;;;;;;6254841;23;20035;-77
2021/06/03 08:14:37;;;;;;;1.70;1.00;;;24.80;61.10;;;;;;6246979;23;20004;-76
2021/06/03 08:17:03;;;;;;;0.70;0.70;;;25.10;60.60;;;;;;6232209;23;20080;-77
2021/06/03 08:19:29;;;;;;;0.75;0.75;;;25.20;60.50;;;;;;6253152;23;20038;-77
2021/06/03 08:21:55;;;;;;;0.95;0.93;;;25.40;60.40;;;;;;6218632;23;20008;-77
2021/06/03 08:24:21;;;;;;;1.42;0.90;;;25.40;60.40;;;;;;6243342;23;20070;-78
2021/06/03 08:26:50;;;;;;;1.13;1.00;;;25.20;60.60;;;;;;6250951;23;20004;-77
2021/06/03 08:29:17;;;;;;;1.10;1.00;;;25.10;61.00;;;;;;6258414;23;20039;-78
2021/06/03 08:31:44;;;;;;;1.08;0.90;;;24.90;61.40;;;;;;6250112;23;20035;-76
2021/06/03 08:34:11;;;;;;;0.93;0.93;;;24.90;61.70;;;;;;6247820;23;20103;-76
2021/06/03 08:36:37;;;;;;;1.10;1.00;;;24.90;61.90;;;;;;6253674;23;20016;-77
2021/06/03 08:39:05;;;;;;;0.90;0.90;;;24.80;62.00;;;;;;6243588;23;20321;-78
2021/06/03 08:41:34;;;;;;;1.10;1.00;;;24.80;62.20;;;;;;6252775;23;20019;-78
2021/06/03 08:44:03;;;;;;;1.45;0.70;;;24.80;62.20;;;;;;6250867;23;20016;-77
2021/06/03 08:46:28;;;;;;;0.82;0.82;;;24.80;62.20;;;;;;6250266;23;20387;-74
2021/06/03 08:48:54;;;;;;;0.85;0.85;;;24.80;62.20;;;;;;6252491;23;20012;-76
2021/06/03 08:51:20;;;;;;;0.70;0.70;;;24.90;62.20;;;;;;6251524;23;20012;-76
2021/06/03 08:53:47;;;;;;;1.45;1.10;;;25.10;61.80;;;;;;6198424;23;20014;-74
2021/06/03 08:56:14;;;;;;;0.90;0.90;;;25.40;61.30;;;;;;6250043;23;20004;-75
2021/06/03 08:58:41;;;;;;;1.48;1.00;;;25.40;61.10;;;;;;6254682;23;20012;-76
2021/06/03 09:01:07;;;;;;;0.98;0.90;;;25.50;61.00;;;;;;6244940;23;20430;-76
2021/06/03 09:03:35;;;;;;;1.10;0.90;;;25.50;61.00;;;;;;6244488;23;20062;-76
2021/06/03 09:06:01;;;;;;;0.93;0.88;;;25.60;61.00;;;;;;6243245;23;20012;-76
2021/06/03 09:08:31;;;;;;;0.70;0.70;;;25.80;60.70;;;;;;6253194;23;20050;-75
2021/06/03 09:11:00;;;;;;;0.88;0.88;;;26.00;60.70;;;;;;6246611;23;20004;-75
2021/06/03 09:13:30;;;;;;;1.10;1.00;;;26.30;60.00;;;;;;6245849;23;20062;-74
2021/06/03 09:16:12;;;;;;;0.90;0.80;;;26.40;59.70;;;;;;6238003;23;20012;-77
2021/06/03 09:18:42;;;;;;;0.80;0.80;;;26.40;59.90;;;;;;6220094;23;20095;-75
2021/06/03 09:21:20;;;;;;;0.75;0.75;;;26.30;59.90;;;;;;6245441;23;20340;-76
2021/06/03 09:24:04;;;;;;;1.35;1.05;;;26.30;60.60;;;;;;6247644;23;20008;-74
2021/06/03 09:26:34;;;;;;;1.00;1.00;;;26.20;60.20;;;;;;6244504;23;20012;-74
2021/06/03 09:29:03;;;;;;;1.30;1.20;;;26.00;60.80;;;;;;6245296;23;20016;-74
2021/06/03 09:31:32;;;;;;;1.10;1.00;;;25.80;61.20;;;;;;6244827;22;20031;-74
2021/06/03 09:34:07;;;;;;;1.58;0.90;;;25.70;61.40;;;;;;6247032;23;20016;-76
2021/06/03 09:36:40;;;;;;;1.92;1.20;;;25.90;61.50;;;;;;6250533;23;20004;-75
2021/06/03 09:39:09;;;;;;;0.93;0.90;;;26.00;61.00;;;;;;6248943;23;20008;-75
2021/06/03 09:41:37;;;;;;;1.05;1.00;;;26.20;60.70;;;;;;6252960;23;20012;-75
2021/06/03 09:44:13;;;;;;;1.10;1.00;;;26.20;60.50;;;;;;6248107;23;20387;-74
2021/06/03 09:46:43;;;;;;;1.20;1.10;;;26.10;60.70;;;;;;6244010;23;20027;-75
2021/06/03 09:49:17;;;;;;;0.82;0.82;;;26.00;61.00;;;;;;6244757;23;20015;-74
2021/06/03 09:51:45;;;;;;;0.93;0.90;;;25.90;61.20;;;;;;6245076;23;20119;-74
2021/06/03 09:54:13;;;;;;;0.93;0.93;;;26.00;61.30;;;;;;6245884;23;20013;-74
2021/06/03 09:56:43;;;;;;;1.10;0.95;;;26.10;61.10;;;;;;6243760;23;20008;-75
2021/06/03 09:59:16;;;;;;;1.05;0.95;;;26.20;60.70;;;;;;6243587;23;20013;-76
2021/06/03 10:01:52;;;;;;;0.88;0.88;;;26.20;60.70;;;;;;6251704;23;20034;-75
2021/06/03 10:04:28;;;;;;;1.63;1.10;;;26.20;60.80;;;;;;6247088;23;20008;-76
2021/06/03 10:07:06;;;;;;;0.80;0.80;;;26.10;61.00;;;;;;6246929;23;20008;-75
2021/06/03 10:09:36;;;;;;;2.33;0.90;;;26.10;61.10;;;;;;6243886;22;20345;-74
2021/06/03 10:12:03;;;;;;;1.23;1.10;;;26.00;61.20;;;;;;6247768;23;20004;-74
2021/06/03 10:14:29;;;;;;;1.40;0.95;;;26.00;61.20;;;;;;6220007;23;20008;-75
2021/06/03 10:16:55;;;;;;;2.17;1.10;;;26.00;61.20;;;;;;6248466;23;20452;-74
2021/06/03 10:19:26;;;;;;;1.17;0.98;;;26.00;61.30;;;;;;6242871;23;20008;-74
2021/06/03 10:22:12;;;;;;;1.48;0.95;;;25.90;61.30;;;;;;6240593;23;20008;-75
2021/06/03 10:24:58;;;;;;;1.00;0.90;;;26.00;61.50;;;;;;6246133;23;20012;-76
2021/06/03 10:27:28;;;;;;;1.10;0.93;;;26.00;61.40;;;;;;6246274;23;20036;-75
2021/06/03 10:29:54;;;;;;;0.98;0.88;;;26.00;61.40;;;;;;6248943;23;20011;-75
2021/06/03 10:32:24;;;;;;;0.90;0.90;;;26.00;61.40;;;;;;6242836;23;20086;-76
2021/06/03 10:34:52;;;;;;;1.23;0.82;;;25.90;61.40;;;;;;6233214;23;20004;-76
2021/06/03 10:37:19;;;;;;;1.08;0.98;;;25.90;61.50;;;;;;6268538;23;20000;-77
2021/06/03 10:39:46;;;;;;;1.38;1.08;;;25.80;61.80;;;;;;6202737;23;19992;-76
2021/06/03 10:42:15;;;;;;;1.35;0.98;;;25.70;62.10;;;;;;6256386;23;20023;-76
2021/06/03 10:44:42;;;;;;;1.08;0.90;;;25.60;62.50;;;;;;6218987;23;20012;-76
2021/06/03 10:47:10;;;;;;;1.08;0.98;;;25.50;62.70;;;;;;6208655;23;20078;-78
2021/06/03 10:49:36;;;;;;;0.88;0.88;;;25.40;63.70;;;;;;6234230;22;20016;-75
2021/06/03 10:52:07;;;;;;;1.08;0.90;;;25.40;63.00;;;;;;6237776;23;20016;-76
2021/06/03 10:54:41;;;;;;;;;;;25.50;63.20;;;;;;6245828;22;20008;-76
2021/06/03 10:57:07;;;;;;;0.93;0.88;;;25.70;62.90;;;;;;6219765;23;19908;-76
2021/06/03 10:59:36;;;;;;;0.80;0.80;;;25.80;62.70;;;;;;6254715;23;20030;-76
2021/06/03 11:02:03;;;;;;;1.02;1.00;;;25.80;62.70;;;;;;6245626;23;20008;-76
2021/06/03 11:04:30;;;;;;;0.90;0.90;;;25.70;62.60;;;;;;6197931;23;20332;-75
2021/06/03 11:06:57;;;;;;;1.40;1.10;;;25.60;63.00;;;;;;6255316;23;20425;-77
2021/06/03 11:09:28;;;;;;;0.98;0.90;;;25.40;62.90;;;;;;6229975;23;20023;-75
2021/06/03 11:12:08;;;;;;;1.60;1.15;;;25.40;63.10;;;;;;6244979;23;20039;-76
2021/06/03 11:14:54;;;;;;;;;;;25.30;63.30;;;;;;6245897;23;20008;-74
2021/06/03 11:17:56;;;;;;;0.70;0.70;;;25.20;63.30;;;;;;6219830;23;19994;-75
2021/06/03 11:20:39;;;;;;;0.80;0.80;;;25.20;63.40;;;;;;6245965;23;20008;-74
2021/06/03 11:23:43;;;;;;;0.90;0.90;;;25.30;63.30;;;;;;6252336;23;20008;-75
2021/06/03 11:26:09;;;;;;;0.95;0.88;;;25.60;63.00;;;;;;6248242;23;20353;-75
2021/06/03 11:28:35;;;;;;;1.30;1.20;;;25.80;62.60;;;;;;6232077;23;20021;-74
2021/06/03 11:31:22;;;;;;;1.20;1.08;;;25.80;62.30;;;;;;6220678;23;20012;-74
2021/06/03 11:34:06;;;;;;;1.55;1.10;;;25.80;62.30;;;;;;6245888;23;20016;-75
2021/06/03 11:36:33;;;;;;;1.10;1.00;;;25.80;62.30;;;;;;6250952;22;20008;-76
2021/06/03 11:38:59;;;;;;;1.23;1.13;;;25.90;62.40;;;;;;6246813;23;20420;-75
2021/06/03 11:41:40;;;;;;;1.15;1.05;;;26.00;62.00;;;;;;6243997;23;20023;-75
2021/06/03 11:44:11;;;;;;;1.30;1.15;;;26.00;62.70;;;;;;6244928;23;20091;-77
2021/06/03 11:46:59;;;;;;;1.98;1.33;;;26.00;62.00;;;;;;6245309;23;20019;-75
2021/06/03 11:49:42;;;;;;;1.10;1.00;;;26.00;62.00;;;;;;6245163;23;20012;-75
2021/06/03 11:52:14;;;;;;;2.40;1.52;;;26.30;61.80;;;;;;6247453;23;20005;-75
2021/06/03 11:54:58;;;;;;;1.52;1.42;;;26.30;61.50;;;;;;6243847;23;20019;-76
2021/06/03 11:57:27;;;;;;;1.33;1.20;;;26.30;61.40;;;;;;6253344;23;20008;-76
2021/06/03 11:59:58;;;;;;;1.40;1.30;;;26.40;61.60;;;;;;6252180;23;20119;-76
2021/06/03 12:02:36;;;;;;;1.80;1.38;;;26.60;62.20;;;;;;6257326;23;20008;-75
2021/06/03 12:05:15;;;;;;;1.13;1.02;;;26.70;61.40;;;;;;6247864;23;20145;-75
2021/06/03 12:07:51;;;;;;;1.77;1.23;;;26.80;61.10;;;;;;6248667;23;20012;-75
2021/06/03 12:10:21;;;;;;;1.33;1.15;;;26.90;60.70;;;;;;6243519;23;20035;-75
2021/06/03 12:12:47;;;;;;;1.23;1.13;;;27.00;60.60;;;;;;6254203;23;20004;-74
2021/06/03 12:15:20;;;;;;;1.20;1.10;;;27.00;60.60;;;;;;6248294;23;20008;-74
2021/06/03 12:17:47;;;;;;;1.27;1.15;;;27.00;60.60;;;;;;6243547;23;20348;-75
2021/06/03 12:20:16;;;;;;;1.20;1.10;;;26.90;60.60;;;;;;6192359;23;20008;-75
2021/06/03 12:22:42;;;;;;;1.10;1.00;;;26.90;60.90;;;;;;6242586;23;20012;-75
2021/06/03 12:25:09;;;;;;;1.27;1.13;;;26.80;61.00;;;;;;6243739;23;20012;-76
2021/06/03 12:27:38;;;;;;;1.10;1.00;;;26.80;61.10;;;;;;6195755;23;20066;-76
2021/06/03 12:30:22;;;;;;;1.30;0.90;;;26.90;61.10;;;;;;6244578;23;20013;-75
2021/06/03 12:33:07;;;;;;;1.23;1.00;;;27.10;60.90;;;;;;6244923;23;20005;-75
2021/06/03 12:35:36;;;;;;;0.90;0.80;;;27.20;60.70;;;;;;6242070;23;20008;-75
2021/06/03 12:38:04;;;;;;;0.80;0.80;;;27.50;60.60;;;;;;6244558;23;20012;-75
2021/06/03 12:40:32;;;;;;;1.15;0.80;;;27.50;60.50;;;;;;6245615;23;20004;-76
2021/06/03 12:43:06;;;;;;;1.10;1.00;;;27.50;60.50;;;;;;6248973;23;20012;-74
2021/06/03 12:45:37;;;;;;;0.82;0.82;;;27.40;60.70;;;;;;6245361;23;20008;-78
2021/06/03 12:48:04;;;;;;;0.70;0.70;;;27.30;60.80;;;;;;6245389;23;20019;-76
2021/06/03 12:50:30;;;;;;;0.98;0.98;;;27.20;61.00;;;;;;6250121;23;20008;-76
2021/06/03 12:52:56;;;;;;;1.48;0.98;;;27.10;61.10;;;;;;6253844;23;20054;-76
2021/06/03 12:55:23;;;;;;;0.90;0.90;;;26.90;61.10;;;;;;6249913;23;20021;-75
2021/06/03 12:57:50;;;;;;;1.00;1.00;;;26.70;61.40;;;;;;6250845;23;20012;-76
2021/06/03 13:00:21;;;;;;;1.15;1.05;;;26.70;61.60;;;;;;6226920;23;20062;-76
2021/06/03 13:02:48;;;;;;;0.95;0.93;;;26.60;61.70;;;;;;6247342;23;20011;-76
2021/06/03 13:05:15;;;;;;;1.25;1.15;;;26.60;61.80;;;;;;6244205;22;20008;-75
2021/06/03 13:07:44;;;;;;;1.23;1.00;;;26.50;61.80;;;;;;6245574;23;20040;-75
2021/06/03 13:10:16;;;;;;;1.05;1.00;;;26.50;61.90;;;;;;6217773;23;20016;-75